Time;durP1;ratioP1;P1;durP2;ratioP2;P2;SDS_P1;SDS_P2;PMS_P1;PMS_P2;Temp;Humidity;BMP_temperature;BMP_pressure;BME280_temperature;BME280_humidity;BME280_pressure;Samples;Min_cycle;Max_cycle;Signal;HPM_P1;HPM_P2
2022/11/23 00:01:14;;;;;;;36.23;20.80;;;;;;;2.69;100.00;99816.34;4994654;28;20241;-54
2022/11/23 00:03:41;;;;;;;37.53;20.97;;;;;;;2.74;100.00;99806.94;4997135;28;20243;-54
2022/11/23 00:06:08;;;;;;;36.23;23.67;;;;;;;3.17;100.00;99798.91;5000276;28;20252;-54
2022/11/23 00:08:35;;;;;;;30.27;20.60;;;;;;;2.83;100.00;99796.69;4995041;28;20674;-55
2022/11/23 00:11:03;;;;;;;31.07;20.87;;;;;;;2.91;100.00;99795.94;4998849;28;20236;-55
2022/11/23 00:13:30;;;;;;;30.27;20.07;;;;;;;2.85;100.00;99789.81;4997885;28;20287;-54
2022/11/23 00:15:57;;;;;;;29.10;20.43;;;;;;;3.01;100.00;99803.88;4996288;28;20316;-55
2022/11/23 00:18:24;;;;;;;32.13;20.33;;;;;;;3.06;100.00;99798.75;4997989;28;20236;-54
2022/11/23 00:20:51;;;;;;;35.80;21.83;;;;;;;2.80;100.00;99799.22;4999999;28;20377;-57
2022/11/23 00:23:18;;;;;;;34.63;20.10;;;;;;;2.78;100.00;99795.75;5002176;28;20298;-54
2022/11/23 00:25:45;;;;;;;35.53;22.50;;;;;;;2.68;100.00;99796.47;5001316;28;20267;-54
2022/11/23 00:28:14;;;;;;;31.87;20.20;;;;;;;2.66;100.00;99798.16;4995641;28;20260;-54
2022/11/23 00:30:41;;;;;;;30.27;21.47;;;;;;;2.62;100.00;99786.00;4993039;28;20239;-53
2022/11/23 00:33:08;;;;;;;30.67;20.37;;;;;;;2.76;100.00;99791.41;4995209;28;20608;-54
2022/11/23 00:35:34;;;;;;;32.43;19.70;;;;;;;3.11;100.00;99797.09;4994500;28;20244;-54
2022/11/23 00:38:01;;;;;;;33.57;20.27;;;;;;;3.18;100.00;99804.09;4997010;28;20361;-55
2022/11/23 00:40:28;;;;;;;36.43;20.17;;;;;;;3.11;100.00;99797.97;4987045;28;20241;-54
2022/11/23 00:42:55;;;;;;;27.80;18.87;;;;;;;2.95;100.00;99808.09;4980977;28;20232;-55
2022/11/23 00:45:22;;;;;;;32.50;20.63;;;;;;;2.79;100.00;99817.38;4998423;28;20240;-55
2022/11/23 00:47:49;;;;;;;31.47;21.17;;;;;;;2.75;100.00;99823.34;4994534;28;20252;-54
2022/11/23 00:50:17;;;;;;;33.57;21.20;;;;;;;2.73;100.00;99823.31;4997418;28;20231;-54
2022/11/23 00:52:44;;;;;;;28.30;20.37;;;;;;;2.92;100.00;99823.63;4989628;28;20232;-53
2022/11/23 00:55:10;;;;;;;33.53;21.93;;;;;;;3.02;100.00;99836.75;4994939;28;20232;-53
2022/11/23 00:57:37;;;;;;;34.83;21.87;;;;;;;2.79;100.00;99830.31;4996225;28;20236;-56
2022/11/23 01:00:05;;;;;;;32.60;20.23;;;;;;;2.87;100.00;99829.59;4984136;28;20319;-53
2022/11/23 01:02:35;;;;;;;33.47;20.57;;;;;;;3.28;100.00;99825.88;4985290;28;20239;-54
2022/11/23 01:05:02;;;;;;;30.47;20.00;;;;;;;3.29;100.00;99831.06;4997502;28;20352;-55
2022/11/23 01:07:30;;;;;;;33.30;20.10;;;;;;;3.47;100.00;99817.44;4994509;28;20240;-54
2022/11/23 01:09:57;;;;;;;31.57;20.57;;;;;;;3.39;100.00;99818.22;5001069;28;20822;-54
2022/11/23 01:12:24;;;;;;;32.17;20.00;;;;;;;3.22;100.00;99823.19;5005420;28;20233;-55
2022/11/23 01:14:53;;;;;;;36.30;21.77;;;;;;;2.95;100.00;99813.28;5005442;28;20410;-54
2022/11/23 01:17:20;;;;;;;32.40;20.97;;;;;;;2.94;100.00;99812.41;4998213;28;20243;-54
2022/11/23 01:19:48;;;;;;;33.30;21.10;;;;;;;2.93;100.00;99809.81;4996444;28;20704;-54
2022/11/23 01:22:15;;;;;;;28.10;19.60;;;;;;;3.14;100.00;99815.28;4991064;28;20683;-55
2022/11/23 01:24:43;;;;;;;31.27;20.10;;;;;;;3.09;100.00;99811.78;4991895;28;20244;-54
2022/11/23 01:27:10;;;;;;;26.50;18.97;;;;;;;2.88;100.00;99809.75;4996857;28;20258;-54
2022/11/23 01:29:37;;;;;;;29.57;20.63;;;;;;;2.89;100.00;99814.06;4997699;28;20233;-54
2022/11/23 01:32:04;;;;;;;31.57;19.87;;;;;;;2.93;100.00;99817.56;5003245;28;20595;-54
2022/11/23 01:34:31;;;;;;;30.43;20.90;;;;;;;3.22;100.00;99831.81;4996552;28;20249;-54
2022/11/23 01:36:59;;;;;;;31.13;20.10;;;;;;;3.23;100.00;99827.50;4996528;28;20247;-54
2022/11/23 01:39:26;;;;;;;27.70;19.67;;;;;;;3.49;100.00;99825.28;4996126;28;20761;-55
2022/11/23 01:41:53;;;;;;;28.30;18.60;;;;;;;3.46;100.00;99831.28;5001654;28;20235;-55
2022/11/23 01:44:26;;;;;;;32.37;20.43;;;;;;;3.46;100.00;99825.22;5006567;28;20267;-54
2022/11/23 01:46:53;;;;;;;32.47;20.50;;;;;;;3.09;100.00;99829.94;4998319;28;20738;-54
2022/11/23 01:49:20;;;;;;;30.40;20.00;;;;;;;3.32;100.00;99830.22;4995742;28;20284;-54
2022/11/23 01:51:49;;;;;;;31.40;20.33;;;;;;;3.19;100.00;99829.19;4997268;28;20255;-55
2022/11/23 01:54:20;;;;;;;32.83;19.43;;;;;;;3.23;100.00;99827.50;5004924;28;20315;-55
2022/11/23 01:56:51;;;;;;;27.40;18.63;;;;;;;2.95;100.00;99831.41;5003198;28;20336;-54
2022/11/23 01:59:19;;;;;;;26.17;18.53;;;;;;;3.01;100.00;99836.72;4997078;28;20237;-54
2022/11/23 02:01:46;;;;;;;31.37;20.40;;;;;;;2.84;100.00;99839.94;4993976;28;20243;-54
2022/11/23 02:04:16;;;;;;;33.17;20.80;;;;;;;2.79;100.00;99835.50;4992901;28;20774;-53
2022/11/23 02:06:45;;;;;;;27.97;19.60;;;;;;;3.00;100.00;99829.78;4996729;28;20245;-53
2022/11/23 02:09:12;;;;;;;38.07;20.80;;;;;;;2.93;100.00;99831.41;4991539;28;20329;-55
2022/11/23 02:11:41;;;;;;;31.50;20.20;;;;;;;2.81;100.00;99834.69;5002597;28;20235;-54
2022/11/23 02:14:08;;;;;;;31.43;18.87;;;;;;;3.51;100.00;99831.34;5001729;28;20796;-56
2022/11/23 02:16:35;;;;;;;30.50;18.87;;;;;;;3.19;100.00;99821.41;5001272;28;20813;-53
2022/11/23 02:19:02;;;;;;;26.43;17.90;;;;;;;3.39;100.00;99828.59;4996327;28;20248;-54
2022/11/23 02:21:29;;;;;;;24.50;17.27;;;;;;;3.79;100.00;99825.66;5004005;28;20228;-53
2022/11/23 02:24:01;;;;;;;27.57;18.87;;;;;;;3.79;100.00;99828.25;4992669;28;20243;-54
2022/11/23 02:26:31;;;;;;;29.40;17.53;;;;;;;3.59;100.00;99821.94;4992335;28;20237;-53
2022/11/23 02:29:00;;;;;;;29.93;19.77;;;;;;;3.60;100.00;99813.28;4996909;28;20713;-55
2022/11/23 02:31:27;;;;;;;29.13;18.17;;;;;;;3.91;100.00;99816.25;4999617;28;20239;-54
2022/11/23 02:33:54;;;;;;;28.67;19.87;;;;;;;3.72;100.00;99813.47;5002074;28;20240;-56
2022/11/23 02:36:30;;;;;;;29.00;19.10;;;;;;;3.67;100.00;99817.72;4988805;28;20237;-55
2022/11/23 02:38:57;;;;;;;32.43;20.13;;;;;;;3.92;100.00;99799.81;4996338;28;20327;-54
2022/11/23 02:41:24;;;;;;;28.70;19.53;;;;;;;3.58;100.00;99812.44;5000889;28;20233;-55
2022/11/23 02:43:55;;;;;;;25.50;18.63;;;;;;;3.68;100.00;99816.84;4999661;28;20236;-54
2022/11/23 02:46:22;;;;;;;29.27;19.80;;;;;;;3.42;100.00;99813.06;4993100;28;20295;-54
2022/11/23 02:48:49;;;;;;;27.27;18.17;;;;;;;3.34;100.00;99806.06;4998853;28;20959;-54
2022/11/23 02:51:16;;;;;;;28.53;18.40;;;;;;;3.40;100.00;99804.38;4997410;28;20272;-54
2022/11/23 02:53:42;;;;;;;31.87;18.67;;;;;;;3.40;100.00;99805.25;4997929;28;20893;-54
2022/11/23 02:56:09;;;;;;;26.60;18.53;;;;;;;3.38;100.00;99827.72;5002150;28;20239;-55
2022/11/23 02:58:36;;;;;;;30.60;18.80;;;;;;;3.14;100.00;99820.47;4996178;28;20224;-55
2022/11/23 03:01:05;;;;;;;27.90;18.67;;;;;;;3.08;100.00;99828.16;5000898;28;20614;-54
2022/11/23 03:03:32;;;;;;;31.70;19.00;;;;;;;3.13;100.00;99831.72;5003638;28;20635;-55
2022/11/23 03:05:58;;;;;;;28.43;18.83;;;;;;;3.34;100.00;99839.78;5002424;28;20657;-54
2022/11/23 03:08:25;;;;;;;30.17;18.40;;;;;;;3.47;100.00;99832.16;4997236;28;20434;-54
2022/11/23 03:10:52;;;;;;;25.93;17.53;;;;;;;3.39;100.00;99839.84;5002096;28;20828;-55
2022/11/23 03:13:19;;;;;;;25.97;18.80;;;;;;;3.19;100.00;99842.16;5005283;28;20258;-55
2022/11/23 03:15:46;;;;;;;30.37;19.03;;;;;;;3.20;100.00;99836.13;5003194;28;20244;-54
2022/11/23 03:18:15;;;;;;;28.20;18.47;;;;;;;2.98;100.00;99836.66;4984767;28;20482;-53
2022/11/23 03:20:42;;;;;;;28.77;18.43;;;;;;;3.27;100.00;99835.38;4996543;28;20241;-53
2022/11/23 03:23:09;;;;;;;31.27;20.27;;;;;;;3.32;100.00;99838.88;4992625;28;20726;-55
2022/11/23 03:25:35;;;;;;;32.17;19.30;;;;;;;2.98;100.00;99841.84;4998335;28;20257;-54
2022/11/23 03:28:02;;;;;;;31.57;20.97;;;;;;;2.77;100.00;99838.09;4990655;28;20291;-54
2022/11/23 03:30:30;;;;;;;28.33;18.73;;;;;;;2.64;100.00;99841.31;4993595;28;20918;-55
2022/11/23 03:32:57;;;;;;;33.47;19.27;;;;;;;2.78;100.00;99839.81;4986803;28;20667;-54
2022/11/23 03:35:25;;;;;;;33.50;20.87;;;;;;;2.80;100.00;99840.69;4985550;28;20761;-54
2022/11/23 03:37:52;;;;;;;29.40;20.33;;;;;;;2.72;100.00;99844.03;4989100;28;20237;-54
2022/11/23 03:40:19;;;;;;;27.10;18.23;;;;;;;2.89;100.00;99836.53;4995610;28;20241;-54
2022/11/23 03:42:46;;;;;;;29.53;19.67;;;;;;;2.76;100.00;99838.06;4997695;28;20236;-53
2022/11/23 03:45:13;;;;;;;29.57;19.10;;;;;;;2.67;100.00;99841.38;4996881;28;20311;-55
2022/11/23 03:47:40;;;;;;;29.90;20.07;;;;;;;2.23;100.00;99832.84;5000535;28;20236;-53
2022/11/23 03:50:08;;;;;;;30.13;20.00;;;;;;;2.47;100.00;99830.69;4996833;28;20610;-54
2022/11/23 03:52:36;;;;;;;28.60;19.57;;;;;;;2.49;100.00;99828.09;5000544;28;20726;-53
2022/11/23 03:55:03;;;;;;;32.47;20.60;;;;;;;2.32;100.00;99833.00;4993813;28;20287;-53
2022/11/23 03:57:30;;;;;;;29.90;18.83;;;;;;;2.73;100.00;99838.88;4998690;28;20245;-53
2022/11/23 03:59:57;;;;;;;29.60;19.50;;;;;;;2.65;100.00;99837.88;4997570;28;20271;-53
2022/11/23 04:02:24;;;;;;;27.63;19.60;;;;;;;2.85;100.00;99845.97;4995195;28;20324;-54
2022/11/23 04:04:51;;;;;;;31.30;19.53;;;;;;;2.79;100.00;99838.97;4989548;28;20240;-53
2022/11/23 04:07:18;;;;;;;28.33;18.93;;;;;;;2.90;100.00;99846.03;5002545;28;20258;-54
2022/11/23 04:09:46;;;;;;;28.20;18.40;;;;;;;2.97;100.00;99842.69;4992444;28;20256;-54
2022/11/23 04:12:13;;;;;;;32.67;19.50;;;;;;;3.17;100.00;99843.88;4995579;28;20237;-55
2022/11/23 04:14:40;;;;;;;31.70;19.40;;;;;;;3.00;100.00;99847.94;5000504;28;20243;-54
2022/11/23 04:17:06;;;;;;;31.80;18.97;;;;;;;3.08;100.00;99838.53;4992496;28;20291;-54
2022/11/23 04:19:33;;;;;;;29.87;19.63;;;;;;;3.34;100.00;99846.72;4993294;28;20246;-55
2022/11/23 04:22:00;;;;;;;25.50;17.93;;;;;;;3.52;100.00;99835.69;4999349;28;20247;-54
2022/11/23 04:24:27;;;;;;;28.37;18.30;;;;;;;3.43;100.00;99846.81;5002244;28;20254;-54
2022/11/23 04:26:55;;;;;;;26.53;17.70;;;;;;;3.05;100.00;99844.56;4994737;28;20266;-53
2022/11/23 04:29:22;;;;;;;26.83;18.57;;;;;;;3.37;100.00;99840.66;4992081;28;20752;-54
2022/11/23 04:31:49;;;;;;;26.57;17.20;;;;;;;3.27;100.00;99845.75;4988610;28;20302;-54
2022/11/23 04:34:16;;;;;;;26.73;17.00;;;;;;;3.19;100.00;99847.34;4994063;28;20331;-57
2022/11/23 04:36:43;;;;;;;26.80;19.47;;;;;;;3.14;100.00;99851.59;5002978;28;20287;-55
2022/11/23 04:39:11;;;;;;;27.10;19.07;;;;;;;3.16;100.00;99847.31;4990472;28;20267;-53
2022/11/23 04:41:38;;;;;;;21.23;17.83;;;;;;;2.96;100.00;99853.94;4992472;28;20233;-53
2022/11/23 04:44:06;;;;;;;32.20;19.07;;;;;;;2.92;100.00;99853.00;4992293;28;20356;-54
2022/11/23 04:46:34;;;;;;;26.23;18.10;;;;;;;3.07;100.00;99847.19;4999607;28;20305;-54
2022/11/23 04:49:01;;;;;;;28.63;18.47;;;;;;;3.22;100.00;99847.38;4999944;28;20292;-55
2022/11/23 04:51:28;;;;;;;26.77;18.47;;;;;;;2.85;100.00;99852.03;4994905;28;20231;-53
2022/11/23 04:53:55;;;;;;;28.97;19.80;;;;;;;2.77;100.00;99848.47;4985036;28;20237;-54
2022/11/23 04:56:22;;;;;;;28.27;19.13;;;;;;;2.72;100.00;99849.22;4991004;28;20237;-54
2022/11/23 04:58:49;;;;;;;24.40;18.43;;;;;;;2.75;100.00;99855.31;4995708;28;20300;-54
2022/11/23 05:01:17;;;;;;;25.37;17.67;;;;;;;2.86;100.00;99850.31;4993343;28;20312;-54
2022/11/23 05:03:44;;;;;;;26.50;17.87;;;;;;;3.13;100.00;99843.81;4993965;28;20236;-54
2022/11/23 05:06:11;;;;;;;27.77;18.27;;;;;;;2.62;100.00;99848.19;4998786;28;20236;-54
2022/11/23 05:08:38;;;;;;;27.87;18.37;;;;;;;2.82;100.00;99862.34;4990728;28;20647;-55
2022/11/23 05:11:05;;;;;;;30.00;19.90;;;;;;;2.96;100.00;99853.94;4993277;28;20233;-55
2022/11/23 05:13:32;;;;;;;26.73;17.47;;;;;;;2.90;100.00;99853.81;4991086;28;20240;-56
2022/11/23 05:15:59;;;;;;;30.30;18.67;;;;;;;2.65;100.00;99848.25;4994563;28;20233;-55
2022/11/23 05:18:27;;;;;;;27.87;18.07;;;;;;;2.96;100.00;99840.97;4995456;28;20232;-54
2022/11/23 05:20:55;;;;;;;26.33;17.57;;;;;;;3.11;100.00;99846.38;5002816;28;20687;-55
2022/11/23 05:23:21;;;;;;;27.63;17.63;;;;;;;2.86;100.00;99848.59;5008004;28;20259;-55
2022/11/23 05:25:48;;;;;;;24.53;17.77;;;;;;;3.12;100.00;99845.50;5011576;28;20324;-54
2022/11/23 05:28:17;;;;;;;25.97;16.23;;;;;;;2.96;100.00;99844.41;4996373;28;20237;-53
2022/11/23 05:30:44;;;;;;;29.83;17.97;;;;;;;3.02;100.00;99843.63;4998727;28;20240;-54
2022/11/23 05:33:11;;;;;;;26.33;17.60;;;;;;;2.89;100.00;99841.72;5001817;28;20283;-56
2022/11/23 05:35:39;;;;;;;23.37;16.90;;;;;;;3.17;100.00;99843.88;5009540;28;20240;-55
2022/11/23 05:38:06;;;;;;;25.20;18.13;;;;;;;3.18;100.00;99840.41;5008372;28;20319;-53
2022/11/23 05:40:33;;;;;;;27.23;18.50;;;;;;;2.86;100.00;99842.53;4999090;28;20387;-54
2022/11/23 05:43:01;;;;;;;24.43;17.40;;;;;;;3.02;100.00;99847.13;5008530;28;20310;-55
2022/11/23 05:45:28;;;;;;;22.67;17.63;;;;;;;2.74;100.00;99848.41;5000189;28;20243;-53
2022/11/23 05:47:56;;;;;;;27.00;17.57;;;;;;;2.81;100.00;99845.06;4997365;28;20793;-53
2022/11/23 05:50:24;;;;;;;26.47;17.37;;;;;;;2.79;100.00;99841.56;4996287;28;20327;-54
2022/11/23 05:52:52;;;;;;;25.90;16.97;;;;;;;3.00;100.00;99845.34;4989593;28;20731;-53
2022/11/23 05:55:19;;;;;;;25.57;16.93;;;;;;;2.97;100.00;99840.97;5005640;28;20276;-53
2022/11/23 05:57:46;;;;;;;29.90;18.80;;;;;;;2.93;100.00;99838.31;5007206;28;20259;-54
2022/11/23 06:00:14;;;;;;;23.27;17.50;;;;;;;3.00;100.00;99840.16;5003218;28;20246;-54
2022/11/23 06:02:41;;;;;;;26.03;17.27;;;;;;;2.91;100.00;99835.69;5004281;28;20236;-55
2022/11/23 06:05:09;;;;;;;26.93;17.97;;;;;;;2.90;100.00;99833.94;5002719;28;20259;-54
2022/11/23 06:07:37;;;;;;;26.83;17.47;;;;;;;2.97;100.00;99829.72;5002782;28;20235;-55
2022/11/23 06:10:06;;;;;;;25.10;17.60;;;;;;;2.72;100.00;99844.91;4992673;28;20241;-55
2022/11/23 06:12:34;;;;;;;22.20;17.40;;;;;;;2.50;100.00;99854.06;4994900;28;20230;-54
2022/11/23 06:15:00;;;;;;;26.10;18.27;;;;;;;2.41;100.00;99847.81;5001707;28;20249;-54
2022/11/23 06:17:27;;;;;;;29.23;17.83;;;;;;;2.49;100.00;99849.72;4999459;28;20350;-54
2022/11/23 06:19:54;;;;;;;22.50;16.47;;;;;;;2.31;100.00;99855.41;4998155;28;20258;-53
2022/11/23 06:22:21;;;;;;;25.00;17.93;;;;;;;2.23;100.00;99849.25;5001239;28;20269;-53
2022/11/23 06:24:48;;;;;;;27.80;18.90;;;;;;;2.15;100.00;99850.81;4997186;28;20622;-54
2022/11/23 06:27:16;;;;;;;24.33;17.47;;;;;;;2.25;100.00;99850.16;4998213;28;20357;-55
2022/11/23 06:29:43;;;;;;;28.27;16.87;;;;;;;2.26;100.00;99864.84;4993201;28;20236;-53
2022/11/23 06:32:10;;;;;;;27.77;18.07;;;;;;;2.80;100.00;99864.03;4994171;28;20323;-55
2022/11/23 06:34:37;;;;;;;22.97;16.67;;;;;;;2.75;100.00;99872.59;4996760;28;20319;-54
2022/11/23 06:37:03;;;;;;;29.80;18.60;;;;;;;2.73;100.00;99871.69;5004146;28;20872;-54
2022/11/23 06:39:30;;;;;;;23.50;16.50;;;;;;;2.92;100.00;99872.88;4996960;28;20236;-54
2022/11/23 06:41:57;;;;;;;24.07;17.40;;;;;;;2.65;100.00;99874.16;4999908;28;22039;-55
2022/11/23 06:44:26;;;;;;;24.30;17.17;;;;;;;2.60;100.00;99873.22;4995068;28;20270;-54
2022/11/23 06:46:53;;;;;;;24.77;16.10;;;;;;;3.04;100.00;99880.84;4980588;28;20247;-55
2022/11/23 06:49:20;;;;;;;25.80;17.03;;;;;;;3.30;100.00;99876.94;4977507;28;20249;-53
2022/11/23 06:51:47;;;;;;;21.93;15.37;;;;;;;3.43;100.00;99877.09;4978957;28;20241;-54
2022/11/23 06:54:14;;;;;;;22.27;15.40;;;;;;;3.46;100.00;99879.72;4984273;28;20236;-53
2022/11/23 06:56:41;;;;;;;28.40;16.67;;;;;;;3.71;100.00;99871.41;4978862;28;20236;-54
2022/11/23 06:59:08;;;;;;;25.17;16.80;;;;;;;3.49;100.00;99887.56;4981007;28;20252;-53
2022/11/23 07:01:36;;;;;;;24.47;16.23;;;;;;;3.70;100.00;99879.19;4980563;28;20287;-54
2022/11/23 07:04:03;;;;;;;21.07;15.60;;;;;;;3.49;100.00;99880.63;4979827;28;20710;-54
2022/11/23 07:06:30;;;;;;;26.33;18.57;;;;;;;3.53;100.00;99878.97;4978822;28;20240;-54
2022/11/23 07:08:57;;;;;;;24.37;15.30;;;;;;;3.55;100.00;99874.66;4982135;28;20233;-53
2022/11/23 07:11:26;;;;;;;21.73;15.73;;;;;;;3.49;100.00;99877.19;4982294;28;20225;-53
2022/11/23 07:13:53;;;;;;;24.20;17.07;;;;;;;3.38;100.00;99883.94;4977119;28;20230;-54
2022/11/23 07:16:20;;;;;;;28.83;17.43;;;;;;;2.90;100.00;99890.13;4984454;28;20252;-54
2022/11/23 07:18:48;;;;;;;27.33;15.90;;;;;;;3.20;100.00;99889.75;4984297;28;20236;-53
2022/11/23 07:21:15;;;;;;;25.93;16.50;;;;;;;3.13;100.00;99893.97;4982574;28;20311;-54
2022/11/23 07:23:42;;;;;;;32.60;16.93;;;;;;;3.58;100.00;99904.13;4969926;28;20252;-54
2022/11/23 07:26:09;;;;;;;26.23;15.77;;;;;;;3.36;100.00;99902.06;4977569;28;20244;-54
2022/11/23 07:28:36;;;;;;;26.97;16.93;;;;;;;3.78;100.00;99904.38;4977287;28;20233;-53
2022/11/23 07:31:03;;;;;;;25.57;17.83;;;;;;;3.61;100.00;99898.09;4966306;28;20446;-54
2022/11/23 07:33:30;;;;;;;23.43;15.73;;;;;;;3.56;100.00;99902.34;4977867;28;20275;-54
2022/11/23 07:36:00;;;;;;;21.43;16.20;;;;;;;3.48;100.00;99912.63;4969359;28;20255;-55
2022/11/23 07:38:27;;;;;;;27.90;16.20;;;;;;;3.54;100.00;99911.81;4981561;28;20307;-55
2022/11/23 07:40:54;;;;;;;24.90;17.27;;;;;;;3.40;100.00;99913.34;4996495;28;20252;-55
2022/11/23 07:43:21;;;;;;;27.03;17.20;;;;;;;3.42;100.00;99906.47;5003437;28;20324;-55
2022/11/23 07:45:48;;;;;;;27.50;16.70;;;;;;;3.46;100.00;99913.44;4993660;28;20245;-53
2022/11/23 07:48:15;;;;;;;24.93;16.23;;;;;;;3.72;100.00;99917.31;4993312;28;20651;-54
2022/11/23 07:50:42;;;;;;;23.97;16.63;;;;;;;3.63;100.00;99913.69;4993823;28;20232;-54
2022/11/23 07:53:10;;;;;;;23.70;16.63;;;;;;;3.34;100.00;99925.41;5000584;28;20229;-54
2022/11/23 07:55:37;;;;;;;25.53;16.70;;;;;;;3.30;100.00;99923.63;4999234;28;20353;-54
2022/11/23 07:58:04;;;;;;;25.17;17.03;;;;;;;3.57;100.00;99922.25;5001723;28;20232;-54
2022/11/23 08:00:31;;;;;;;26.03;15.17;;;;;;;3.58;100.00;99927.50;5003080;28;20855;-54
2022/11/23 08:02:58;;;;;;;25.73;17.17;;;;;;;3.18;100.00;99933.78;5001792;28;20695;-54
2022/11/23 08:05:25;;;;;;;24.63;16.17;;;;;;;3.42;100.00;99935.03;4993993;28;20790;-53
2022/11/23 08:07:58;;;;;;;26.30;17.20;;;;;;;3.29;100.00;99934.81;5000464;28;20243;-54
2022/11/23 08:10:26;;;;;;;25.30;15.67;;;;;;;3.44;100.00;99935.91;4988539;28;20300;-54
2022/11/23 08:12:52;;;;;;;26.07;15.83;;;;;;;3.49;100.00;99934.25;4986200;28;20248;-54
2022/11/23 08:15:19;;;;;;;31.43;16.53;;;;;;;3.44;100.00;99941.09;4988172;28;20256;-53
2022/11/23 08:17:46;;;;;;;23.63;16.10;;;;;;;3.46;100.00;99945.47;4980629;28;20267;-54
2022/11/23 08:20:13;;;;;;;27.23;17.20;;;;;;;3.35;100.00;99942.72;4988194;28;20295;-54
2022/11/23 08:22:40;;;;;;;25.37;16.87;;;;;;;3.53;100.00;99936.03;4992503;28;20790;-54
2022/11/23 08:25:07;;;;;;;28.13;16.17;;;;;;;3.54;100.00;99936.06;4999904;28;20229;-55
2022/11/23 08:27:35;;;;;;;27.37;16.63;;;;;;;3.47;100.00;99946.31;4987810;28;20240;-54
2022/11/23 08:30:02;;;;;;;25.07;17.30;;;;;;;3.40;100.00;99942.75;4992488;28;20739;-55
2022/11/23 08:32:28;;;;;;;26.00;17.73;;;;;;;3.48;100.00;99945.50;5000819;28;20287;-55
2022/11/23 08:34:55;;;;;;;26.07;16.53;;;;;;;3.18;100.00;99944.16;5003326;28;20749;-54
2022/11/23 08:37:21;;;;;;;27.23;16.83;;;;;;;3.11;100.00;99942.31;4997802;28;20241;-54
2022/11/23 08:39:48;;;;;;;28.67;16.67;;;;;;;3.08;100.00;99944.84;4998221;28;20243;-55
2022/11/23 08:42:15;;;;;;;27.93;17.00;;;;;;;3.37;100.00;99947.03;4997193;28;20271;-54
2022/11/23 08:44:43;;;;;;;27.17;16.73;;;;;;;3.44;100.00;99947.19;4996288;28;20232;-53
2022/11/23 08:47:09;;;;;;;22.97;16.33;;;;;;;3.47;100.00;99947.19;4995310;28;20290;-54
2022/11/23 08:49:36;;;;;;;21.47;15.77;;;;;;;3.27;100.00;99943.44;4996876;28;20300;-55
2022/11/23 08:52:03;;;;;;;25.70;16.47;;;;;;;3.32;100.00;99950.44;4998717;28;20824;-54
2022/11/23 08:54:31;;;;;;;22.97;16.67;;;;;;;3.48;100.00;99953.28;4993566;28;20255;-55
2022/11/23 08:56:58;;;;;;;23.20;16.10;;;;;;;3.79;100.00;99955.47;5002996;28;20290;-54
2022/11/23 08:59:24;;;;;;;21.00;16.00;;;;;;;3.78;100.00;99963.22;4991047;28;20756;-55
2022/11/23 09:01:52;;;;;;;26.90;15.87;;;;;;;3.76;100.00;99950.22;4995942;28;20749;-53
2022/11/23 09:04:19;;;;;;;24.83;17.80;;;;;;;3.87;100.00;99952.09;4988634;28;20246;-53
2022/11/23 09:06:46;;;;;;;22.00;15.47;;;;;;;3.85;100.00;99957.25;4999551;28;20240;-54
2022/11/23 09:09:12;;;;;;;26.47;16.53;;;;;;;3.83;100.00;99949.47;4997557;28;20316;-56
2022/11/23 09:11:39;;;;;;;23.77;17.57;;;;;;;3.44;100.00;99947.19;4997463;28;20781;-53
2022/11/23 09:14:06;;;;;;;24.80;15.87;;;;;;;3.75;100.00;99956.25;4997815;28;20316;-54
2022/11/23 09:16:32;;;;;;;24.47;17.17;;;;;;;3.47;100.00;99949.78;4997549;28;20248;-57
2022/11/23 09:19:01;;;;;;;21.17;16.20;;;;;;;3.94;100.00;99948.72;5000546;28;20315;-56
2022/11/23 09:21:32;;;;;;;24.57;16.53;;;;;;;3.67;100.00;99955.28;4991192;28;20587;-53
2022/11/23 09:23:58;;;;;;;24.33;16.13;;;;;;;3.90;100.00;99952.16;4990479;28;20248;-54
2022/11/23 09:26:25;;;;;;;24.30;15.60;;;;;;;3.51;100.00;99948.13;4988999;28;20319;-54
2022/11/23 09:28:52;;;;;;;25.53;16.37;;;;;;;3.77;100.00;99949.38;4994286;28;20237;-57
2022/11/23 09:31:19;;;;;;;27.20;15.87;;;;;;;3.99;100.00;99942.72;4982817;28;20336;-54
2022/11/23 09:33:45;;;;;;;27.33;16.80;;;;;;;4.10;100.00;99937.66;4979896;28;20327;-55
2022/11/23 09:36:13;;;;;;;22.23;17.03;;;;;;;3.83;100.00;99946.00;4980527;28;20341;-54
2022/11/23 09:38:40;;;;;;;21.60;14.47;;;;;;;3.90;100.00;99941.75;4983571;28;20313;-54
2022/11/23 09:41:27;;;;;;;22.40;16.47;;;;;;;3.81;100.00;99938.16;4974570;28;20309;-54
2022/11/23 09:43:57;;;;;;;21.53;16.93;;;;;;;3.91;100.00;99933.97;4973204;28;20317;-55
2022/11/23 09:46:33;;;;;;;20.47;14.77;;;;;;;3.93;100.00;99936.56;4996431;28;20244;-54
2022/11/23 09:49:12;;;;;;;19.97;15.43;;;;;;;3.99;100.00;99931.47;4987697;28;20754;-54
2022/11/23 09:51:41;;;;;;;25.50;15.57;;;;;;;3.94;100.00;99935.75;4979501;28;20325;-53
2022/11/23 09:54:14;;;;;;;22.40;15.40;;;;;;;4.09;100.00;99928.13;4994818;28;20229;-54
2022/11/23 09:56:41;;;;;;;20.80;13.60;;;;;;;4.15;100.00;99928.22;4988623;28;20324;-56
2022/11/23 09:59:22;;;;;;;29.33;14.87;;;;;;;4.28;100.00;99930.13;4994379;28;20234;-54
2022/11/23 10:01:50;;;;;;;20.67;14.73;;;;;;;4.30;100.00;99928.38;4984841;28;20995;-54
2022/11/23 10:04:19;;;;;;;21.63;14.97;;;;;;;4.36;100.00;99934.53;4996971;28;20237;-53
2022/11/23 10:06:52;;;;;;;19.03;15.03;;;;;;;4.44;100.00;99930.28;5005629;28;20229;-52
2022/11/23 10:09:27;;;;;;;18.97;13.93;;;;;;;4.57;100.00;99926.94;5005638;28;20324;-53
2022/11/23 10:12:26;;;;;;;22.20;15.47;;;;;;;4.53;100.00;99925.19;5006058;28;20320;-53
2022/11/23 10:15:03;;;;;;;24.43;13.90;;;;;;;4.54;100.00;99926.91;5000564;28;20950;-58
2022/11/23 10:17:47;;;;;;;20.30;14.37;;;;;;;4.47;100.00;99925.97;5005056;28;20614;-55
2022/11/23 10:20:24;;;;;;;23.17;14.10;;;;;;;4.73;100.00;99923.63;4998026;28;20268;-55
2022/11/23 10:22:57;;;;;;;16.13;13.50;;;;;;;4.82;100.00;99922.00;4994024;28;20264;-54
2022/11/23 10:25:25;;;;;;;23.13;14.90;;;;;;;4.86;100.00;99924.63;5003187;28;20316;-55
2022/11/23 10:27:55;;;;;;;19.43;13.57;;;;;;;4.93;100.00;99925.53;4998330;28;20233;-56
2022/11/23 10:30:22;;;;;;;17.47;13.33;;;;;;;4.97;100.00;99927.31;4998319;28;20324;-53
2022/11/23 10:32:51;;;;;;;16.80;12.33;;;;;;;4.96;100.00;99915.19;4984726;28;20238;-54
2022/11/23 10:35:21;;;;;;;18.43;13.40;;;;;;;4.91;100.00;99916.84;4985833;28;20230;-54
2022/11/23 10:37:48;;;;;;;18.53;12.97;;;;;;;5.33;100.00;99916.31;4974501;28;20264;-53
2022/11/23 10:40:18;;;;;;;17.53;13.57;;;;;;;5.31;100.00;99918.06;4984090;28;20317;-54
2022/11/23 10:42:48;;;;;;;19.67;13.77;;;;;;;5.36;100.00;99913.72;4983518;28;20258;-53
2022/11/23 10:45:23;;;;;;;17.90;12.10;;;;;;;5.51;100.00;99915.59;4985591;28;20329;-55
2022/11/23 10:47:51;;;;;;;17.60;12.97;;;;;;;5.47;100.00;99914.66;4985003;28;20264;-53
2022/11/23 10:50:24;;;;;;;20.20;12.63;;;;;;;5.49;100.00;99917.31;4981641;28;20905;-55
2022/11/23 10:52:52;;;;;;;19.10;12.67;;;;;;;5.67;100.00;99917.41;4977979;28;20337;-54
2022/11/23 10:55:25;;;;;;;18.43;12.83;;;;;;;5.64;100.00;99909.56;4977073;28;20268;-53
2022/11/23 10:57:52;;;;;;;16.47;11.20;;;;;;;5.77;100.00;99912.25;5002116;28;20624;-53
2022/11/23 11:00:20;;;;;;;16.77;12.27;;;;;;;5.73;100.00;99912.22;4991637;28;20374;-62
2022/11/23 11:02:49;;;;;;;16.67;11.37;;;;;;;5.70;100.00;99912.22;4992379;28;20317;-53
2022/11/23 11:05:25;;;;;;;17.30;13.40;;;;;;;5.86;100.00;99913.19;5004207;28;20275;-55
2022/11/23 11:07:54;;;;;;;18.43;12.73;;;;;;;5.88;100.00;99905.34;4994424;28;21184;-55
2022/11/23 11:10:38;;;;;;;18.00;12.50;;;;;;;5.92;100.00;99904.50;5003687;28;20245;-56
2022/11/23 11:13:30;;;;;;;15.07;11.50;;;;;;;5.87;100.00;99909.69;4994690;28;20226;-56
2022/11/23 11:15:59;;;;;;;19.70;12.17;;;;;;;5.98;100.00;99909.78;5004124;28;20245;-57
2022/11/23 11:18:31;;;;;;;16.97;12.40;;;;;;;5.91;100.00;99902.78;4985214;28;20230;-55
2022/11/23 11:21:00;;;;;;;18.73;14.07;;;;;;;6.02;100.00;99903.72;5003598;28;20283;-55